Time;durP1;ratioP1;P1;durP2;ratioP2;P2;SDS_P1;SDS_P2;PMS_P1;PMS_P2;Temp;Humidity;BMP_temperature;BMP_pressure;BME280_temperature;BME280_humidity;BME280_pressure;Samples;Min_cycle;Max_cycle;Signal;HPM_P1;HPM_P2
2021/07/13 00:01:16;;;;;;;7.15;5.28;;;;;;;;;;5012489;28;20037;-68
2021/07/13 00:03:42;;;;;;;6.00;4.95;;;;;;;;;;5012617;28;20037;-67
2021/07/13 00:06:08;;;;;;;9.40;5.68;;;;;;;;;;5012578;28;20041;-67
2021/07/13 00:08:34;;;;;;;6.30;5.15;;;;;;;;;;5012436;28;20499;-68
2021/07/13 00:11:00;;;;;;;7.10;5.85;;;;;;;;;;5012388;28;20036;-68
2021/07/13 00:13:26;;;;;;;6.07;5.07;;;;;;;;;;5012269;28;20033;-68
2021/07/13 00:15:53;;;;;;;6.30;5.50;;;;;;;;;;5012554;28;20076;-68
2021/07/13 00:18:19;;;;;;;9.32;5.18;;;;;;;;;;5012532;28;20122;-67
2021/07/13 00:20:45;;;;;;;8.07;5.70;;;;;;;;;;5012287;28;20029;-67
2021/07/13 00:23:11;;;;;;;11.80;5.75;;;;;;;;;;5012748;28;20026;-66
2021/07/13 00:25:37;;;;;;;6.78;4.88;;;;;;;;;;5014241;28;20032;-67
2021/07/13 00:28:05;;;;;;;8.68;5.78;;;;;;;;;;5015059;28;20050;-66
2021/07/13 00:30:31;;;;;;;6.53;5.28;;;;;;;;;;5015296;28;20527;-66
2021/07/13 00:32:57;;;;;;;8.18;5.63;;;;;;;;;;5015314;28;20049;-68
2021/07/13 00:35:23;;;;;;;7.70;5.63;;;;;;;;;;5021455;28;20395;-66
2021/07/13 00:37:49;;;;;;;6.45;5.57;;;;;;;;;;5034467;28;20045;-68
2021/07/13 00:40:17;;;;;;;7.45;5.95;;;;;;;;;;4997797;28;20091;-68
2021/07/13 00:42:44;;;;;;;7.32;5.53;;;;;;;;;;5015280;28;20026;-68
2021/07/13 00:45:11;;;;;;;7.35;5.10;;;;;;;;;;5015071;28;20504;-68
2021/07/13 00:47:38;;;;;;;6.80;5.13;;;;;;;;;;5014918;28;20452;-67
2021/07/13 00:50:04;;;;;;;8.85;5.68;;;;;;;;;;5014804;28;20030;-67
2021/07/13 00:52:30;;;;;;;7.55;5.25;;;;;;;;;;5014744;28;20022;-65
2021/07/13 00:54:56;;;;;;;7.05;5.40;;;;;;;;;;5014867;28;20018;-66
2021/07/13 00:57:22;;;;;;;8.63;5.45;;;;;;;;;;5015072;28;20069;-66
2021/07/13 00:59:48;;;;;;;6.47;5.13;;;;;;;;;;5014768;28;20033;-67
2021/07/13 01:02:15;;;;;;;6.07;4.15;;;;;;;;;;5014793;28;20029;-66
2021/07/13 01:04:48;;;;;;;7.82;5.35;;;;;;;;;;5014952;28;20030;-67
2021/07/13 01:07:32;;;;;;;7.80;5.35;;;;;;;;;;5014776;28;20388;-67
2021/07/13 01:10:04;;;;;;;7.38;5.85;;;;;;;;;;5014040;28;20495;-67
2021/07/13 01:12:40;;;;;;;6.93;5.07;;;;;;;;;;5014618;28;20427;-67
2021/07/13 01:15:07;;;;;;;6.90;5.22;;;;;;;;;;5014478;28;20129;-68
2021/07/13 01:17:35;;;;;;;13.15;6.35;;;;;;;;;;5014496;28;20435;-67
2021/07/13 01:20:08;;;;;;;9.90;5.47;;;;;;;;;;5014478;28;20076;-67
2021/07/13 01:22:44;;;;;;;7.57;5.20;;;;;;;;;;5014587;28;20033;-67
2021/07/13 01:25:14;;;;;;;6.88;4.70;;;;;;;;;;5014361;28;20030;-68
2021/07/13 01:27:59;;;;;;;6.97;5.38;;;;;;;;;;4996734;28;20025;-67
2021/07/13 01:30:26;;;;;;;8.02;5.38;;;;;;;;;;5014276;28;20130;-68
2021/07/13 01:32:56;;;;;;;6.93;5.30;;;;;;;;;;5014203;28;20022;-68
2021/07/13 01:35:25;;;;;;;7.43;5.05;;;;;;;;;;5014149;28;20029;-67
2021/07/13 01:37:52;;;;;;;6.15;4.93;;;;;;;;;;5013855;28;20152;-67
2021/07/13 01:40:18;;;;;;;7.60;5.10;;;;;;;;;;5014331;28;20443;-68
2021/07/13 01:42:45;;;;;;;8.35;5.28;;;;;;;;;;5014022;28;20473;-67
2021/07/13 01:45:11;;;;;;;7.97;5.25;;;;;;;;;;5014033;28;20037;-67
2021/07/13 01:47:38;;;;;;;8.82;5.60;;;;;;;;;;5014251;28;20034;-67
2021/07/13 01:50:05;;;;;;;10.35;5.75;;;;;;;;;;5014088;28;20040;-67
2021/07/13 01:52:33;;;;;;;7.47;5.28;;;;;;;;;;5014013;28;20419;-67
2021/07/13 01:55:01;;;;;;;8.10;5.18;;;;;;;;;;5014195;28;20022;-68
2021/07/13 01:57:28;;;;;;;7.10;5.15;;;;;;;;;;5013842;28;20033;-68
2021/07/13 01:59:54;;;;;;;7.35;5.30;;;;;;;;;;5013638;28;20101;-67
2021/07/13 02:02:21;;;;;;;8.05;5.20;;;;;;;;;;5013891;28;20036;-67
2021/07/13 02:04:49;;;;;;;7.50;5.40;;;;;;;;;;5013631;28;20030;-69
2021/07/13 02:07:15;;;;;;;8.57;6.75;;;;;;;;;;5013363;28;20028;-68
2021/07/13 02:09:43;;;;;;;9.65;6.45;;;;;;;;;;5013384;28;20026;-68
2021/07/13 02:12:10;;;;;;;9.35;6.03;;;;;;;;;;5013734;28;20069;-68
2021/07/13 02:14:36;;;;;;;8.07;5.35;;;;;;;;;;5013414;28;20054;-67
2021/07/13 02:17:03;;;;;;;8.30;5.85;;;;;;;;;;5013372;28;20026;-67
2021/07/13 02:19:29;;;;;;;9.48;6.57;;;;;;;;;;5013345;28;20108;-68
2021/07/13 02:21:56;;;;;;;7.72;5.82;;;;;;;;;;5012462;28;20037;-68
2021/07/13 02:24:22;;;;;;;7.00;5.38;;;;;;;;;;5013196;28;20036;-67
2021/07/13 02:27:01;;;;;;;7.72;5.28;;;;;;;;;;5013258;28;20431;-67
2021/07/13 02:29:33;;;;;;;10.82;6.20;;;;;;;;;;5013179;28;20036;-67
2021/07/13 02:32:00;;;;;;;6.50;4.95;;;;;;;;;;5013116;28;20032;-67
2021/07/13 02:34:28;;;;;;;7.15;5.25;;;;;;;;;;5012951;28;20037;-68
2021/07/13 02:36:57;;;;;;;8.40;5.25;;;;;;;;;;5012785;28;20084;-68
2021/07/13 02:39:23;;;;;;;6.90;5.18;;;;;;;;;;5012973;28;20034;-67
2021/07/13 02:41:50;;;;;;;7.25;4.85;;;;;;;;;;5012991;28;20026;-68
2021/07/13 02:44:16;;;;;;;7.90;5.70;;;;;;;;;;5012920;28;20037;-68
2021/07/13 02:46:46;;;;;;;6.60;5.60;;;;;;;;;;5012948;28;20026;-68
2021/07/13 02:49:16;;;;;;;6.68;5.15;;;;;;;;;;5012597;28;20022;-67
2021/07/13 02:51:42;;;;;;;6.78;5.05;;;;;;;;;;5012908;28;20053;-67
2021/07/13 02:54:10;;;;;;;10.55;5.28;;;;;;;;;;5012819;28;20057;-67
2021/07/13 02:56:38;;;;;;;7.38;5.32;;;;;;;;;;5012725;28;20496;-68
2021/07/13 02:59:05;;;;;;;7.97;5.40;;;;;;;;;;5012728;28;20077;-67
2021/07/13 03:01:32;;;;;;;7.40;5.45;;;;;;;;;;5012713;28;20480;-68
2021/07/13 03:03:58;;;;;;;6.65;5.60;;;;;;;;;;5012489;28;20036;-67
2021/07/13 03:06:24;;;;;;;7.47;5.10;;;;;;;;;;5012610;28;20030;-67
2021/07/13 03:08:50;;;;;;;12.95;5.50;;;;;;;;;;5012476;28;20049;-67
2021/07/13 03:11:17;;;;;;;7.70;6.35;;;;;;;;;;5012597;28;20026;-68
2021/07/13 03:13:43;;;;;;;8.32;6.03;;;;;;;;;;5012576;28;20096;-67
2021/07/13 03:16:10;;;;;;;7.15;4.88;;;;;;;;;;5012493;28;20543;-68
2021/07/13 03:18:36;;;;;;;8.38;5.82;;;;;;;;;;5012393;28;20041;-68
2021/07/13 03:21:03;;;;;;;8.48;5.63;;;;;;;;;;5012744;28;20030;-68
2021/07/13 03:23:30;;;;;;;8.43;5.85;;;;;;;;;;5012461;28;20062;-68
2021/07/13 03:25:57;;;;;;;6.93;4.97;;;;;;;;;;5012514;28;20033;-68
2021/07/13 03:28:24;;;;;;;7.45;6.45;;;;;;;;;;5012570;28;20033;-67
2021/07/13 03:30:52;;;;;;;6.72;5.45;;;;;;;;;;5012970;28;20049;-68
2021/07/13 03:33:20;;;;;;;9.02;6.60;;;;;;;;;;5012856;28;20018;-68
2021/07/13 03:35:46;;;;;;;6.65;5.38;;;;;;;;;;5016214;28;20101;-67
2021/07/13 03:38:12;;;;;;;7.93;5.50;;;;;;;;;;5016522;28;20018;-67
2021/07/13 03:40:39;;;;;;;8.25;6.05;;;;;;;;;;5016287;28;20026;-68
2021/07/13 03:43:05;;;;;;;10.15;5.90;;;;;;;;;;5016299;28;20030;-67
2021/07/13 03:45:31;;;;;;;8.07;5.93;;;;;;;;;;5016159;28;20073;-67
2021/07/13 03:47:58;;;;;;;8.80;6.43;;;;;;;;;;5015966;28;20037;-67
2021/07/13 03:50:26;;;;;;;9.52;6.25;;;;;;;;;;5016069;28;20026;-67
2021/07/13 03:52:52;;;;;;;9.27;5.85;;;;;;;;;;5016330;28;20025;-67
2021/07/13 03:55:18;;;;;;;11.57;6.72;;;;;;;;;;5015986;28;20032;-68
2021/07/13 03:57:45;;;;;;;10.20;6.45;;;;;;;;;;5016020;28;20048;-67
2021/07/13 04:00:12;;;;;;;13.65;6.60;;;;;;;;;;5016216;28;20018;-68
2021/07/13 04:02:38;;;;;;;11.65;7.18;;;;;;;;;;5015743;28;20053;-67
2021/07/13 04:05:05;;;;;;;15.32;7.47;;;;;;;;;;5015811;28;20084;-67
2021/07/13 04:07:31;;;;;;;11.48;7.65;;;;;;;;;;5015842;28;20037;-68
2021/07/13 04:09:58;;;;;;;13.90;6.95;;;;;;;;;;5015586;28;20038;-67
2021/07/13 04:12:24;;;;;;;10.57;7.15;;;;;;;;;;5015731;28;20022;-68
2021/07/13 04:14:50;;;;;;;14.38;8.10;;;;;;;;;;5015661;28;20033;-68
2021/07/13 04:17:16;;;;;;;14.82;7.43;;;;;;;;;;5015470;28;20076;-68
2021/07/13 04:19:42;;;;;;;12.35;7.53;;;;;;;;;;5015514;28;20087;-68
2021/07/13 04:22:08;;;;;;;9.68;6.90;;;;;;;;;;5015525;28;20026;-68
2021/07/13 04:24:34;;;;;;;11.75;7.55;;;;;;;;;;5015411;28;20100;-67
2021/07/13 04:27:01;;;;;;;11.60;7.32;;;;;;;;;;5015425;28;20484;-68
2021/07/13 04:29:27;;;;;;;15.63;7.97;;;;;;;;;;5015276;28;20022;-67
2021/07/13 04:31:53;;;;;;;10.35;7.47;;;;;;;;;;5015244;28;20034;-67
2021/07/13 04:34:19;;;;;;;14.15;8.35;;;;;;;;;;5015216;28;20021;-67
2021/07/13 04:36:45;;;;;;;12.85;7.78;;;;;;;;;;5014996;28;20403;-67
2021/07/13 04:39:11;;;;;;;12.95;7.80;;;;;;;;;;5015265;28;20408;-68
2021/07/13 04:41:37;;;;;;;14.68;8.65;;;;;;;;;;5015156;28;20512;-67
2021/07/13 04:44:04;;;;;;;11.32;7.70;;;;;;;;;;5015129;28;20029;-67
2021/07/13 04:46:30;;;;;;;10.93;7.78;;;;;;;;;;5014410;28;20058;-68
2021/07/13 04:48:57;;;;;;;14.75;8.85;;;;;;;;;;5014933;28;20026;-68
2021/07/13 04:51:23;;;;;;;14.82;7.93;;;;;;;;;;5013699;28;20061;-68
2021/07/13 04:53:49;;;;;;;11.65;7.65;;;;;;;;;;5022743;28;20357;-68
2021/07/13 04:56:15;;;;;;;13.25;8.32;;;;;;;;;;5034711;28;20033;-68
2021/07/13 04:58:42;;;;;;;15.75;8.90;;;;;;;;;;5023119;28;20109;-68
2021/07/13 05:01:08;;;;;;;12.88;8.43;;;;;;;;;;5014898;28;20431;-67
2021/07/13 05:03:34;;;;;;;13.32;7.47;;;;;;;;;;5014928;28;20038;-68
2021/07/13 05:06:00;;;;;;;13.02;8.30;;;;;;;;;;5014986;28;20386;-68
2021/07/13 05:08:29;;;;;;;12.40;8.57;;;;;;;;;;5014848;28;20029;-68
2021/07/13 05:10:55;;;;;;;16.23;9.15;;;;;;;;;;5014561;28;20105;-68
2021/07/13 05:13:21;;;;;;;15.13;8.10;;;;;;;;;;5014483;28;20022;-67
2021/07/13 05:15:47;;;;;;;13.68;8.38;;;;;;;;;;5032866;28;20036;-67
2021/07/13 05:18:15;;;;;;;15.27;9.10;;;;;;;;;;5034228;28;20431;-68
2021/07/13 05:20:49;;;;;;;13.05;7.82;;;;;;;;;;5034573;28;20223;-68
2021/07/13 05:23:16;;;;;;;10.55;7.25;;;;;;;;;;5034152;28;20102;-69
2021/07/13 05:25:42;;;;;;;13.27;8.05;;;;;;;;;;5034330;28;20025;-68
2021/07/13 05:28:12;;;;;;;13.60;7.78;;;;;;;;;;5033919;28;20029;-67
2021/07/13 05:30:42;;;;;;;12.43;7.38;;;;;;;;;;5016418;28;20112;-68
2021/07/13 05:33:08;;;;;;;16.73;8.20;;;;;;;;;;5014053;28;20436;-68
2021/07/13 05:35:35;;;;;;;12.35;8.07;;;;;;;;;;5014020;28;20028;-68
2021/07/13 05:38:01;;;;;;;10.50;7.88;;;;;;;;;;5013911;28;20046;-67
2021/07/13 05:40:27;;;;;;;13.57;7.60;;;;;;;;;;5014070;28;20609;-67
2021/07/13 05:42:53;;;;;;;14.90;7.75;;;;;;;;;;5013844;28;20534;-69
2021/07/13 05:45:19;;;;;;;12.55;7.95;;;;;;;;;;5013940;28;20030;-68
2021/07/13 05:47:45;;;;;;;11.50;7.88;;;;;;;;;;5027767;28;20057;-68
2021/07/13 05:50:12;;;;;;;12.48;7.95;;;;;;;;;;5033574;28;20032;-68
2021/07/13 05:52:39;;;;;;;11.68;7.43;;;;;;;;;;5033632;28;20032;-67
2021/07/13 05:55:05;;;;;;;13.23;8.60;;;;;;;;;;5033838;28;20177;-68
2021/07/13 05:57:32;;;;;;;15.00;8.85;;;;;;;;;;5033393;28;20025;-68
2021/07/13 05:59:58;;;;;;;16.58;8.18;;;;;;;;;;5033532;28;20392;-68
2021/07/13 06:02:24;;;;;;;11.43;7.72;;;;;;;;;;5045526;28;20475;-68
2021/07/13 06:04:50;;;;;;;11.48;7.40;;;;;;;;;;5033317;28;20049;-67
2021/07/13 06:07:16;;;;;;;10.95;7.53;;;;;;;;;;5033017;28;20377;-68
2021/07/13 06:09:43;;;;;;;13.13;7.90;;;;;;;;;;5036347;28;20029;-66
2021/07/13 06:12:09;;;;;;;10.98;7.88;;;;;;;;;;5012694;28;20022;-67
2021/07/13 06:14:40;;;;;;;11.05;7.55;;;;;;;;;;5012428;28;20053;-67
2021/07/13 06:17:06;;;;;;;12.13;8.10;;;;;;;;;;5019625;28;20488;-67
2021/07/13 06:19:33;;;;;;;14.43;8.27;;;;;;;;;;5037631;28;20029;-65
2021/07/13 06:21:59;;;;;;;12.90;8.05;;;;;;;;;;5027514;28;20033;-68
2021/07/13 06:24:25;;;;;;;12.75;7.60;;;;;;;;;;5024367;28;20057;-65
2021/07/13 06:26:51;;;;;;;12.45;7.95;;;;;;;;;;5030617;28;20030;-65
2021/07/13 06:29:17;;;;;;;15.55;8.40;;;;;;;;;;5031684;28;20033;-65
2021/07/13 06:31:43;;;;;;;12.43;7.60;;;;;;;;;;5027004;28;20030;-67
2021/07/13 06:34:11;;;;;;;11.40;7.90;;;;;;;;;;5013096;28;20022;-68
2021/07/13 06:36:37;;;;;;;13.52;7.35;;;;;;;;;;5012735;28;20045;-67
2021/07/13 06:39:03;;;;;;;10.40;7.05;;;;;;;;;;5017067;28;20034;-67
2021/07/13 06:41:29;;;;;;;8.90;6.18;;;;;;;;;;5032809;28;20022;-66
2021/07/13 06:43:55;;;;;;;10.45;7.38;;;;;;;;;;5032554;28;20057;-68
2021/07/13 06:46:21;;;;;;;9.25;6.68;;;;;;;;;;5029716;28;20072;-67
2021/07/13 06:48:48;;;;;;;11.00;7.43;;;;;;;;;;5012774;28;20037;-66
2021/07/13 06:51:14;;;;;;;12.05;7.25;;;;;;;;;;5011830;28;20017;-66
2021/07/13 06:53:40;;;;;;;9.52;6.90;;;;;;;;;;5012798;28;20144;-67
2021/07/13 06:56:07;;;;;;;9.82;6.80;;;;;;;;;;5015616;28;20029;-67
2021/07/13 06:58:33;;;;;;;10.20;6.78;;;;;;;;;;5024016;28;20029;-65
2021/07/13 07:00:59;;;;;;;11.20;6.85;;;;;;;;;;5044305;28;20044;-66
2021/07/13 07:03:25;;;;;;;11.48;6.90;;;;;;;;;;5051169;28;20021;-67
2021/07/13 07:05:51;;;;;;;11.02;7.28;;;;;;;;;;5042774;28;20024;-67
2021/07/13 07:08:17;;;;;;;13.00;7.72;;;;;;;;;;5034418;28;20038;-67
2021/07/13 07:10:43;;;;;;;12.18;7.28;;;;;;;;;;5031505;28;20071;-67
2021/07/13 07:13:09;;;;;;;11.27;8.43;;;;;;;;;;5031527;28;20021;-69
2021/07/13 07:15:35;;;;;;;11.50;7.40;;;;;;;;;;5025814;28;20071;-68
2021/07/13 07:18:02;;;;;;;11.50;6.68;;;;;;;;;;5036000;28;20379;-68
2021/07/13 07:20:29;;;;;;;12.38;7.07;;;;;;;;;;5044672;28;20029;-68
2021/07/13 07:22:55;;;;;;;10.18;7.00;;;;;;;;;;5044803;28;20084;-65
2021/07/13 07:25:21;;;;;;;12.40;8.35;;;;;;;;;;5013146;28;20068;-69
2021/07/13 07:27:47;;;;;;;11.52;7.47;;;;;;;;;;5023226;28;20479;-69
2021/07/13 07:30:16;;;;;;;9.88;7.47;;;;;;;;;;5026270;28;20377;-68
2021/07/13 07:32:44;;;;;;;11.25;7.63;;;;;;;;;;5018501;28;20033;-68
2021/07/13 07:35:11;;;;;;;12.30;6.90;;;;;;;;;;5021108;28;20021;-68
2021/07/13 07:37:38;;;;;;;10.07;7.45;;;;;;;;;;5015653;28;20132;-67
2021/07/13 07:40:05;;;;;;;10.85;7.93;;;;;;;;;;5023324;28;20067;-69
2021/07/13 07:42:34;;;;;;;11.90;6.97;;;;;;;;;;5027372;28;20036;-68
2021/07/13 07:45:01;;;;;;;10.45;7.03;;;;;;;;;;5015554;28;20104;-68
2021/07/13 07:47:27;;;;;;;10.07;7.50;;;;;;;;;;5020804;28;20725;-69
2021/07/13 07:49:53;;;;;;;11.20;7.05;;;;;;;;;;5021791;28;20030;-69
2021/07/13 07:52:19;;;;;;;9.75;7.68;;;;;;;;;;5011984;28;20022;-69
2021/07/13 07:54:46;;;;;;;13.27;7.88;;;;;;;;;;5017111;28;20022;-69
2021/07/13 07:57:12;;;;;;;9.13;7.13;;;;;;;;;;5015599;28;20336;-67
2021/07/13 07:59:38;;;;;;;9.13;7.18;;;;;;;;;;4996964;28;20029;-69
2021/07/13 08:02:04;;;;;;;10.93;7.45;;;;;;;;;;5021710;28;20030;-68
2021/07/13 08:04:30;;;;;;;10.93;7.65;;;;;;;;;;5017966;28;20491;-71
2021/07/13 08:06:56;;;;;;;11.82;7.75;;;;;;;;;;5027350;28;20502;-69
2021/07/13 08:09:22;;;;;;;9.30;6.68;;;;;;;;;;5011265;28;20026;-69
2021/07/13 08:11:49;;;;;;;12.13;7.28;;;;;;;;;;5015841;28;20113;-68
2021/07/13 08:14:15;;;;;;;10.60;7.03;;;;;;;;;;5015493;28;20022;-68
2021/07/13 08:16:43;;;;;;;9.30;7.22;;;;;;;;;;5014909;28;20029;-68
2021/07/13 08:19:09;;;;;;;8.38;6.00;;;;;;;;;;5019018;28;20025;-68
2021/07/13 08:21:35;;;;;;;10.00;7.47;;;;;;;;;;5025786;28;20455;-69
2021/07/13 08:24:02;;;;;;;7.88;6.45;;;;;;;;;;5021941;28;20056;-68
2021/07/13 08:26:28;;;;;;;10.25;5.57;;;;;;;;;;5033487;28;20069;-69
2021/07/13 08:28:54;;;;;;;10.68;6.72;;;;;;;;;;5029552;28;20025;-68
2021/07/13 08:31:20;;;;;;;8.02;6.45;;;;;;;;;;5022428;28;20506;-69
2021/07/13 08:33:47;;;;;;;10.52;6.32;;;;;;;;;;5029918;28;20435;-69
2021/07/13 08:36:13;;;;;;;7.63;5.75;;;;;;;;;;5021314;28;20045;-68
2021/07/13 08:38:39;;;;;;;8.95;6.40;;;;;;;;;;5019670;28;20038;-68
2021/07/13 08:41:05;;;;;;;8.57;5.43;;;;;;;;;;5032660;28;20033;-69
2021/07/13 08:43:32;;;;;;;8.50;5.70;;;;;;;;;;5031866;28;20053;-68
2021/07/13 08:45:59;;;;;;;8.30;5.78;;;;;;;;;;5030402;28;20025;-68
2021/07/13 08:48:25;;;;;;;6.68;5.20;;;;;;;;;;5029267;28;20037;-68
2021/07/13 08:50:55;;;;;;;6.75;5.35;;;;;;;;;;5014122;28;20042;-70
2021/07/13 08:53:21;;;;;;;7.20;5.35;;;;;;;;;;5014188;28;20026;-69
2021/07/13 08:55:47;;;;;;;6.43;5.05;;;;;;;;;;5024435;28;20026;-67
2021/07/13 08:58:14;;;;;;;6.57;5.00;;;;;;;;;;5026991;28;20018;-65
2021/07/13 09:00:40;;;;;;;6.38;5.03;;;;;;;;;;5015822;28;20034;-69
2021/07/13 09:03:09;;;;;;;6.30;4.93;;;;;;;;;;5028543;28;20021;-68
2021/07/13 09:05:40;;;;;;;6.70;5.28;;;;;;;;;;5035944;28;20025;-68
2021/07/13 09:08:13;;;;;;;6.68;4.72;;;;;;;;;;5033097;28;20028;-67
2021/07/13 09:10:39;;;;;;;8.02;4.75;;;;;;;;;;5042244;28;20047;-69
2021/07/13 09:13:06;;;;;;;7.95;4.93;;;;;;;;;;5027063;28;20592;-68
2021/07/13 09:15:32;;;;;;;7.05;5.55;;;;;;;;;;5019678;28;20373;-68
2021/07/13 09:17:58;;;;;;;5.22;4.70;;;;;;;;;;5019586;28;20032;-68
2021/07/13 09:20:27;;;;;;;7.90;4.88;;;;;;;;;;5027047;28;20030;-68
2021/07/13 09:23:01;;;;;;;6.13;4.72;;;;;;;;;;5030448;28;20040;-68
2021/07/13 09:25:28;;;;;;;5.88;4.45;;;;;;;;;;5031881;28;20040;-68
2021/07/13 09:28:12;;;;;;;7.85;4.95;;;;;;;;;;5030986;28;20025;-68
2021/07/13 09:30:39;;;;;;;7.38;5.25;;;;;;;;;;5024334;28;20041;-69
2021/07/13 09:33:25;;;;;;;7.05;4.88;;;;;;;;;;5023307;28;20021;-68
2021/07/13 09:36:00;;;;;;;7.65;4.70;;;;;;;;;;5024918;28;20034;-68
2021/07/13 09:38:27;;;;;;;5.53;4.55;;;;;;;;;;5018761;28;20044;-68
2021/07/13 09:41:03;;;;;;;8.00;4.60;;;;;;;;;;5028612;28;20049;-68
2021/07/13 09:43:40;;;;;;;7.15;4.65;;;;;;;;;;5017160;28;20037;-68
2021/07/13 09:46:22;;;;;;;5.90;4.43;;;;;;;;;;5030997;28;20100;-68
2021/07/13 09:49:07;;;;;;;7.05;4.75;;;;;;;;;;5012859;28;20033;-68
2021/07/13 09:51:33;;;;;;;6.57;5.20;;;;;;;;;;5030402;28;20033;-67
2021/07/13 09:53:59;;;;;;;6.80;4.30;;;;;;;;;;5024378;28;20020;-68
2021/07/13 09:56:38;;;;;;;7.47;4.50;;;;;;;;;;5024636;28;20022;-69
2021/07/13 09:59:04;;;;;;;7.05;4.40;;;;;;;;;;5023926;28;20100;-68
2021/07/13 10:01:30;;;;;;;6.82;4.57;;;;;;;;;;5014900;28;20057;-68
2021/07/13 10:03:56;;;;;;;7.63;4.82;;;;;;;;;;5023094;28;20121;-65
2021/07/13 10:06:26;;;;;;;6.78;4.50;;;;;;;;;;5015943;28;21171;-66
2021/07/13 10:08:52;;;;;;;6.50;4.32;;;;;;;;;;5024276;28;20025;-68
2021/07/13 10:11:19;;;;;;;6.05;4.72;;;;;;;;;;5015433;28;20030;-68
2021/07/13 10:13:45;;;;;;;7.07;5.35;;;;;;;;;;5019373;28;20028;-65
2021/07/13 10:16:11;;;;;;;6.25;4.45;;;;;;;;;;5025707;28;20018;-66
2021/07/13 10:18:37;;;;;;;6.63;4.78;;;;;;;;;;5031816;28;20172;-66
2021/07/13 10:21:04;;;;;;;4.82;4.00;;;;;;;;;;5017988;28;20032;-65
2021/07/13 10:23:30;;;;;;;6.50;4.82;;;;;;;;;;5015303;28;20032;-66
2021/07/13 10:25:57;;;;;;;5.35;4.13;;;;;;;;;;5016537;28;20033;-65
2021/07/13 10:28:32;;;;;;;5.22;4.13;;;;;;;;;;5012418;28;20022;-67
2021/07/13 10:30:59;;;;;;;8.27;5.22;;;;;;;;;;5023429;28;20024;-69
2021/07/13 10:33:32;;;;;;;6.38;4.35;;;;;;;;;;5021363;28;20026;-67
2021/07/13 10:36:17;;;;;;;8.10;5.47;;;;;;;;;;5022737;28;20072;-68
2021/07/13 10:38:43;;;;;;;7.68;4.47;;;;;;;;;;5015777;28;20074;-66
2021/07/13 10:41:12;;;;;;;5.10;4.35;;;;;;;;;;5021288;28;20021;-68
2021/07/13 10:43:48;;;;;;;5.82;4.45;;;;;;;;;;5026832;28;20037;-68
2021/07/13 10:46:14;;;;;;;7.47;4.72;;;;;;;;;;5027258;28;20108;-68
2021/07/13 10:48:41;;;;;;;6.85;4.45;;;;;;;;;;5016170;28;20044;-68
2021/07/13 10:51:08;;;;;;;5.80;4.40;;;;;;;;;;5015416;28;20022;-68
2021/07/13 10:53:35;;;;;;;5.82;4.30;;;;;;;;;;5014441;28;20086;-68
2021/07/13 10:56:02;;;;;;;5.78;5.00;;;;;;;;;;5017882;28;20092;-68
2021/07/13 10:58:29;;;;;;;6.40;4.60;;;;;;;;;;5015091;28;20026;-68
2021/07/13 11:00:57;;;;;;;7.75;5.15;;;;;;;;;;5022439;28;20026;-68
2021/07/13 11:03:30;;;;;;;6.43;5.10;;;;;;;;;;5018389;28;20022;-69
2021/07/13 11:06:16;;;;;;;8.55;5.68;;;;;;;;;;5023701;28;20436;-68
2021/07/13 11:08:47;;;;;;;8.27;5.68;;;;;;;;;;4961446;28;20087;-66
2021/07/13 11:14:02;;;;;;;5.70;4.90;;;;;;;;;;5034334;28;20048;-67
2021/07/13 11:16:42;;;;;;;8.15;5.28;;;;;;;;;;5011168;28;20029;-68
2021/07/13 11:19:12;;;;;;;7.03;5.50;;;;;;;;;;5005442;28;20550;-68
2021/07/13 11:21:42;;;;;;;8.25;5.20;;;;;;;;;;5024710;28;20025;-67
2021/07/13 11:24:11;;;;;;;8.77;5.90;;;;;;;;;;5017625;28;20025;-68
2021/07/13 11:26:38;;;;;;;10.10;6.25;;;;;;;;;;5030788;28;20064;-68
2021/07/13 11:29:06;;;;;;;11.02;5.60;;;;;;;;;;5031251;28;20040;-68
2021/07/13 11:31:36;;;;;;;7.65;5.50;;;;;;;;;;5016119;28;20022;-67
2021/07/13 11:34:04;;;;;;;9.05;6.20;;;;;;;;;;5014945;28;20030;-65
2021/07/13 11:36:34;;;;;;;8.38;5.47;;;;;;;;;;5017967;28;20033;-68
2021/07/13 11:39:02;;;;;;;8.40;5.43;;;;;;;;;;5025167;28;20503;-68
2021/07/13 11:41:29;;;;;;;8.07;5.97;;;;;;;;;;5023184;28;20034;-67
2021/07/13 11:43:56;;;;;;;7.50;5.55;;;;;;;;;;5018483;28;20060;-67
2021/07/13 11:46:29;;;;;;;7.60;5.60;;;;;;;;;;5025356;28;20040;-68
2021/07/13 11:48:56;;;;;;;8.55;5.95;;;;;;;;;;5016861;28;20084;-67
2021/07/13 11:51:27;;;;;;;6.53;5.45;;;;;;;;;;5015405;28;20033;-68
2021/07/13 11:53:57;;;;;;;8.75;5.65;;;;;;;;;;5017249;28;20026;-67
2021/07/13 11:56:24;;;;;;;7.32;5.82;;;;;;;;;;5030406;28;20106;-67
2021/07/13 11:58:51;;;;;;;8.13;5.80;;;;;;;;;;5014516;28;20034;-68
2021/07/13 12:01:18;;;;;;;9.95;5.88;;;;;;;;;;5031629;28;20033;-67
2021/07/13 12:03:44;;;;;;;10.25;5.97;;;;;;;;;;5016727;28;20033;-67
2021/07/13 12:06:11;;;;;;;7.07;5.43;;;;;;;;;;5018021;28;20121;-67
2021/07/13 12:08:37;;;;;;;6.10;4.78;;;;;;;;;;5023473;28;20018;-67
2021/07/13 12:11:04;;;;;;;5.30;4.53;;;;;;;;;;5026234;28;20587;-68
2021/07/13 12:13:30;;;;;;;5.80;5.20;;;;;;;;;;5013181;28;20083;-68
2021/07/13 12:16:16;;;;;;;6.68;5.32;;;;;;;;;;5016099;28;20033;-69
2021/07/13 12:18:42;;;;;;;7.70;5.22;;;;;;;;;;5022406;28;20039;-69
2021/07/13 12:21:12;;;;;;;5.65;4.25;;;;;;;;;;5019672;28;20034;-67
2021/07/13 12:23:38;;;;;;;6.00;4.20;;;;;;;;;;5021776;28;20111;-67
2021/07/13 12:26:34;;;;;;;5.65;4.60;;;;;;;;;;5016847;28;20772;-67
2021/07/13 12:29:03;;;;;;;7.82;5.55;;;;;;;;;;5009891;28;20045;-68
2021/07/13 12:31:29;;;;;;;6.28;5.00;;;;;;;;;;5021480;28;20037;-68
2021/07/13 12:34:00;;;;;;;5.70;4.70;;;;;;;;;;5034566;28;20048;-68
2021/07/13 12:36:31;;;;;;;5.53;4.80;;;;;;;;;;5025198;28;20095;-69
2021/07/13 12:39:14;;;;;;;5.95;4.20;;;;;;;;;;5026897;28;20034;-68
2021/07/13 12:41:40;;;;;;;5.78;4.38;;;;;;;;;;5022800;28;20108;-68
2021/07/13 12:44:27;;;;;;;5.95;4.18;;;;;;;;;;5014310;28;20044;-68
2021/07/13 12:47:13;;;;;;;5.22;3.63;;;;;;;;;;5020759;28;20030;-67
2021/07/13 12:49:42;;;;;;;6.40;4.85;;;;;;;;;;5022657;28;20029;-68
2021/07/13 12:52:12;;;;;;;4.65;4.10;;;;;;;;;;5029782;28;20561;-67
2021/07/13 12:54:57;;;;;;;5.07;4.20;;;;;;;;;;5018371;28;20042;-68
2021/07/13 12:57:30;;;;;;;4.70;4.20;;;;;;;;;;5018915;28;20048;-67
2021/07/13 13:00:07;;;;;;;4.78;3.58;;;;;;;;;;5028386;28;20033;-67
2021/07/13 13:02:34;;;;;;;5.90;3.95;;;;;;;;;;5021395;28;20516;-68
2021/07/13 13:05:00;;;;;;;4.63;3.80;;;;;;;;;;5018977;28;20033;-67
2021/07/13 13:07:26;;;;;;;5.15;3.80;;;;;;;;;;5032323;28;20036;-66
2021/07/13 13:09:52;;;;;;;4.80;3.70;;;;;;;;;;5026868;28;20033;-67
2021/07/13 13:12:18;;;;;;;4.05;3.65;;;;;;;;;;5013213;28;20038;-67
2021/07/13 13:14:45;;;;;;;4.28;3.50;;;;;;;;;;5013404;28;20077;-66
2021/07/13 13:17:16;;;;;;;4.70;3.60;;;;;;;;;;5024208;28;20018;-67
2021/07/13 13:19:44;;;;;;;4.75;3.35;;;;;;;;;;5019785;28;20041;-68
2021/07/13 13:22:10;;;;;;;4.63;3.53;;;;;;;;;;5020323;28;20050;-67
2021/07/13 13:24:37;;;;;;;4.55;3.45;;;;;;;;;;5025644;28;20037;-67
2021/07/13 13:27:04;;;;;;;3.85;2.90;;;;;;;;;;5025813;28;20029;-69
2021/07/13 13:29:33;;;;;;;4.00;3.60;;;;;;;;;;5020785;28;20068;-67
2021/07/13 13:32:00;;;;;;;3.95;3.25;;;;;;;;;;5017651;28;20041;-67
2021/07/13 13:34:26;;;;;;;6.75;3.22;;;;;;;;;;5025398;28;20030;-68
2021/07/13 13:36:59;;;;;;;3.78;3.30;;;;;;;;;;5016669;28;20050;-67
2021/07/13 13:39:25;;;;;;;3.88;3.47;;;;;;;;;;5020264;28;20028;-69
2021/07/13 13:41:51;;;;;;;4.07;2.60;;;;;;;;;;5025450;28;20037;-67
2021/07/13 13:44:18;;;;;;;5.05;3.20;;;;;;;;;;5024133;28;20451;-67
2021/07/13 13:46:45;;;;;;;4.82;3.05;;;;;;;;;;5033928;28;20044;-68
2021/07/13 13:49:11;;;;;;;3.75;3.03;;;;;;;;;;5030797;28;20471;-66
2021/07/13 13:51:37;;;;;;;3.83;3.33;;;;;;;;;;5027063;28;20121;-67
2021/07/13 13:54:03;;;;;;;5.07;3.15;;;;;;;;;;5015324;28;20030;-67
2021/07/13 13:56:30;;;;;;;4.03;3.40;;;;;;;;;;5026303;28;20022;-67
2021/07/13 13:58:56;;;;;;;3.90;3.50;;;;;;;;;;5026847;28;20349;-67
2021/07/13 14:01:23;;;;;;;3.15;2.85;;;;;;;;;;5030055;28;20030;-67
2021/07/13 14:03:49;;;;;;;3.70;2.80;;;;;;;;;;5021870;28;20033;-67
2021/07/13 14:06:15;;;;;;;3.70;3.10;;;;;;;;;;5018205;28;20061;-68
2021/07/13 14:08:42;;;;;;;3.30;2.75;;;;;;;;;;5024930;28;20040;-67
2021/07/13 14:11:09;;;;;;;3.50;3.20;;;;;;;;;;5024438;28;20392;-68
2021/07/13 14:13:36;;;;;;;5.07;3.17;;;;;;;;;;5021378;28;20057;-67
2021/07/13 14:16:03;;;;;;;3.10;2.75;;;;;;;;;;5009488;28;20153;-67
2021/07/13 14:18:29;;;;;;;5.00;2.83;;;;;;;;;;5030459;28;20025;-67
2021/07/13 14:20:57;;;;;;;3.95;3.28;;;;;;;;;;5027666;28;20492;-68
2021/07/13 14:23:23;;;;;;;3.63;2.70;;;;;;;;;;5019100;28;20065;-68
2021/07/13 14:25:49;;;;;;;2.88;2.50;;;;;;;;;;5025999;28;20032;-68
2021/07/13 14:28:16;;;;;;;2.85;2.60;;;;;;;;;;5020784;28;20038;-67
2021/07/13 14:30:42;;;;;;;3.65;2.90;;;;;;;;;;5029618;28;20025;-67
2021/07/13 14:33:08;;;;;;;3.75;2.80;;;;;;;;;;5012543;28;20037;-67
2021/07/13 14:35:35;;;;;;;2.80;2.53;;;;;;;;;;5012231;28;20033;-67
2021/07/13 14:38:01;;;;;;;3.80;2.78;;;;;;;;;;5012525;28;20050;-69
2021/07/13 14:40:27;;;;;;;3.08;2.78;;;;;;;;;;5010809;28;20111;-68
2021/07/13 14:42:54;;;;;;;2.85;2.55;;;;;;;;;;5015135;28;20030;-69
2021/07/13 14:45:20;;;;;;;3.88;2.70;;;;;;;;;;5023182;28;20042;-67